Aviation Digital Data Service (ADDS)

Output produced by METARs form (0612 UTC 19 March 2019)
found at http://www.aviationweather.gov/metar/data/
 
Forecast for: EGMC (SOUTHEND-ON-SEA , GB)
Text: TAF EGMC 182300Z 1900/1909 25004KT 9999 FEW035
Forecast period: 0000 to 0900 UTC 19 March 2019
Forecast type: FROM: standard forecast or significant change
Winds: from the WSW (250 degrees) at 5 MPH (4 knots; 2.1 m/s)
Visibility: 6 or more miles 10+ km)
Ceiling: at least 12,000 feet AGL
Clouds: few clouds at 3500 feet AGL
Weather: no significant weather forecast for this period
Text: PROB40 1902/1907 8000
Forecast period: 0200 to 0700 UTC 19 March 2019
Forecast type: PROBABLE: 40 percent likelihood of the following during this time
Visibility: 5 miles (8 km)
Ceiling: unknown
Clouds: missing
Weather: no significant weather forecast for this period